History for KNYNEWYO831

west village, New York City, NY — Current Conditions
Daily Summary for July 19, 2018
  Current: High: Low: Average:
Temperature: 67.8°F 74.1°F 67.8°F 70.9°F
Dew Point: 54.9°F 55.4°F 51.1°F 53.6°F
Humidity: 63% 64% 47% 55%
Wind Speed: 8.7mph 15.9mph - 7.5mph
Wind Gust: 9.8mph 19.9mph - -
Wind: WNW - - WNW
Pressure: 30.03in 30.03in 29.97in -
Precipitation: 0.00in      
Solar Radiation: 0 watts/m^2      
UV Index: 0.0      
Statistics for the rest of the month
    High: Low: Average:
Temperature:   95.9°F 64.0°F 78.4°F
Dew Point:   83.5°F 40.3°F 63.8°F
Humidity:   99.0% 31.0% 63.7%
Wind Speed:   61.3mph from the WNW - 5.1mph
Wind Gust:   67.6mph from the WNW - -
Wind:   - - South
Pressure:   30.38in 29.72in -
Precipitation:   1.84in    
KNYNEWYO831 Weather Graph
Tabular Data for July 19, 2018
Time Temp. Dew Point Pressure Wind Gust Humidity Rainfall Solar Radiation
00:04 74.1°F 53.8°F 29.97in 7.4mph 49% 0.00in 0.00 watts/m^2
00:09 73.9°F 54.7°F 29.97in 12.3mph 51% 0.00in 0.00 watts/m^2
00:14 73.8°F 54.0°F 29.97in 7.4mph 50% 0.00in 0.00 watts/m^2
00:19 73.8°F 53.4°F 29.97in 9.8mph 49% 0.00in 0.00 watts/m^2
00:24 73.6°F 53.8°F 29.97in 9.8mph 50% 0.00in 0.00 watts/m^2
00:29 73.4°F 53.1°F 29.97in 4.9mph 49% 0.00in 0.00 watts/m^2
00:34 73.2°F 53.6°F 29.97in 9.8mph 50% 0.00in 0.00 watts/m^2
00:39 73.0°F 52.9°F 29.97in 7.4mph 49% 0.00in 0.00 watts/m^2
00:44 73.0°F 53.4°F 29.97in 7.4mph 50% 0.00in 0.00 watts/m^2
00:49 72.9°F 52.7°F 29.97in 7.4mph 49% 0.00in 0.00 watts/m^2
00:54 72.9°F 52.2°F 29.98in 9.8mph 48% 0.00in 0.00 watts/m^2
00:59 72.9°F 52.7°F 29.98in 9.8mph 49% 0.00in 0.00 watts/m^2
01:04 72.7°F 52.5°F 29.98in 4.9mph 49% 0.00in 0.00 watts/m^2
01:09 72.7°F 53.1°F 29.98in 9.8mph 50% 0.00in 0.00 watts/m^2
01:14 72.7°F 52.0°F 29.98in 12.3mph 48% 0.00in 0.00 watts/m^2
01:19 72.5°F 51.3°F 29.98in 7.4mph 47% 0.00in 0.00 watts/m^2
01:24 72.5°F 52.3°F 29.98in 7.4mph 49% 0.00in 0.00 watts/m^2
01:29 72.3°F 51.6°F 29.99in 9.8mph 48% 0.00in 0.00 watts/m^2
01:34 72.3°F 51.1°F 29.99in 12.3mph 47% 0.00in 0.00 watts/m^2
01:39 72.3°F 52.2°F 29.98in 12.3mph 49% 0.00in 0.00 watts/m^2
01:44 72.3°F 51.6°F 29.99in 9.8mph 48% 0.00in 0.00 watts/m^2
01:49 72.1°F 51.4°F 29.98in 15.0mph 48% 0.00in 0.00 watts/m^2
01:54 72.1°F 52.0°F 29.99in 7.4mph 49% 0.00in 0.00 watts/m^2
01:59 72.0°F 52.3°F 29.98in 7.4mph 50% 0.00in 0.00 watts/m^2
02:04 72.0°F 52.9°F 29.98in 7.4mph 51% 0.00in 0.00 watts/m^2
02:09 71.8°F 53.2°F 29.99in 12.3mph 52% 0.00in 0.00 watts/m^2
02:14 71.6°F 53.1°F 29.99in 7.4mph 52% 0.00in 0.00 watts/m^2
02:19 71.4°F 52.9°F 29.99in 4.9mph 52% 0.00in 0.00 watts/m^2
02:24 71.4°F 53.4°F 30.00in 7.4mph 53% 0.00in 0.00 watts/m^2
02:29 71.2°F 53.2°F 30.00in 9.8mph 53% 0.00in 0.00 watts/m^2
02:34 70.9°F 54.0°F 29.99in 9.8mph 55% 0.00in 0.00 watts/m^2
02:39 70.7°F 54.3°F 29.99in 7.4mph 56% 0.00in 0.00 watts/m^2
02:44 70.5°F 53.6°F 30.00in 9.8mph 55% 0.00in 0.00 watts/m^2
02:49 70.3°F 54.0°F 29.99in 12.3mph 56% 0.00in 0.00 watts/m^2
02:54 70.2°F 54.3°F 29.99in 9.8mph 57% 0.00in 0.00 watts/m^2
02:59 70.0°F 55.0°F 30.00in 7.4mph 59% 0.00in 0.00 watts/m^2
03:04 69.8°F 54.9°F 30.00in 4.9mph 59% 0.00in 0.00 watts/m^2
03:09 69.6°F 54.7°F 30.00in 9.8mph 59% 0.00in 0.00 watts/m^2
03:14 69.6°F 54.3°F 30.00in 9.8mph 58% 0.00in 0.00 watts/m^2
03:19 69.4°F 54.1°F 30.00in 9.8mph 58% 0.00in 0.00 watts/m^2
03:24 69.3°F 54.0°F 30.01in 9.8mph 58% 0.00in 0.00 watts/m^2
03:29 69.3°F 54.3°F 30.00in 4.9mph 59% 0.00in 0.00 watts/m^2
03:34 69.1°F 54.1°F 30.00in 7.4mph 59% 0.00in 0.00 watts/m^2
03:39 69.1°F 53.8°F 30.00in 7.4mph 58% 0.00in 0.00 watts/m^2
03:44 69.1°F 52.7°F 30.01in 12.3mph 56% 0.00in 0.00 watts/m^2
03:49 69.1°F 53.2°F 30.00in 9.8mph 57% 0.00in 0.00 watts/m^2
03:54 69.1°F 54.7°F 30.01in 12.3mph 60% 0.00in 0.00 watts/m^2
03:59 69.1°F 55.0°F 30.01in 7.4mph 61% 0.00in 0.00 watts/m^2
04:04 68.9°F 54.9°F 30.00in 9.8mph 61% 0.00in 0.00 watts/m^2
04:09 68.9°F 54.5°F 30.01in 9.8mph 60% 0.00in 0.00 watts/m^2
04:14 68.7°F 54.3°F 30.01in 12.3mph 60% 0.00in 0.00 watts/m^2
04:19 68.5°F 54.1°F 30.01in 9.8mph 60% 0.00in 0.00 watts/m^2
04:24 68.5°F 55.0°F 30.02in 9.8mph 62% 0.00in 0.00 watts/m^2
04:29 68.5°F 54.7°F 30.01in 9.8mph 61% 0.00in 0.00 watts/m^2
04:34 68.4°F 55.4°F 30.01in 4.9mph 63% 0.00in 0.00 watts/m^2
04:39 68.4°F 55.4°F 30.01in 9.8mph 63% 0.00in 0.00 watts/m^2
04:44 68.2°F 54.7°F 30.02in 9.8mph 62% 0.00in 0.00 watts/m^2
04:49 68.2°F 54.7°F 30.02in 7.4mph 62% 0.00in 0.00 watts/m^2
04:54 68.0°F 55.0°F 30.02in 12.3mph 63% 0.00in 0.00 watts/m^2
04:59 68.0°F 55.4°F 30.02in 9.8mph 64% 0.00in 0.00 watts/m^2
05:04 67.8°F 55.2°F 30.02in 7.4mph 64% 0.00in 0.00 watts/m^2
05:09 67.8°F 54.9°F 30.03in 12.3mph 63% 0.00in 0.00 watts/m^2
Comma Delimited File
Powered by Weather Underground, Inc.